Time;durP1;ratioP1;P1;durP2;ratioP2;P2;SDS_P1;SDS_P2;PMS_P1;PMS_P2;Temp;Humidity;BMP_temperature;BMP_pressure;BME280_temperature;BME280_humidity;BME280_pressure;Samples;Min_cycle;Max_cycle;Signal;HPM_P1;HPM_P2
2023/07/09 00:00:00;;;;;;;7.00;3.70;;;20.40;1.00;21.50;94671.00;;;;7393053;19;20218;-74
2023/07/09 00:02:35;;;;;;;6.50;3.60;;;20.50;1.00;21.60;94665.00;;;;7398816;19;20216;-75
2023/07/09 00:05:16;;;;;;;7.85;3.53;;;20.50;1.00;21.70;94671.00;;;;7397908;19;20169;-74
2023/07/09 00:07:57;;;;;;;6.28;3.53;;;20.60;1.00;21.60;94671.00;;;;7398816;19;20148;-75
2023/07/09 00:10:24;;;;;;;5.05;3.13;;;20.70;1.00;21.70;94667.00;;;;7400003;19;20121;-75
2023/07/09 00:12:58;;;;;;;7.50;3.58;;;20.70;1.00;21.50;94679.00;;;;7400103;19;20224;-75
2023/07/09 00:15:26;;;;;;;6.18;3.53;;;20.70;1.00;21.50;94669.00;;;;7398706;19;20148;-75
2023/07/09 00:18:00;;;;;;;7.22;3.85;;;20.70;1.00;21.70;94671.00;;;;7399407;19;20133;-75
2023/07/09 00:20:34;;;;;;;7.30;3.58;;;20.70;1.00;21.80;94670.00;;;;7399634;19;20506;-75
2023/07/09 00:23:04;;;;;;;5.03;3.25;;;20.80;1.00;21.90;94670.00;;;;7398465;19;20482;-74
2023/07/09 00:25:35;;;;;;;8.27;3.78;;;20.90;1.00;21.90;94667.00;;;;7401329;19;20152;-75
2023/07/09 00:28:14;;;;;;;8.00;3.78;;;20.90;1.00;21.70;94674.00;;;;7401872;19;20140;-76
2023/07/09 00:30:49;;;;;;;5.97;3.47;;;20.90;1.00;21.80;94668.00;;;;7399797;19;20140;-79
2023/07/09 00:33:31;;;;;;;4.90;3.95;;;20.90;1.00;21.90;94679.00;;;;7399729;19;20144;-78
2023/07/09 00:36:18;;;;;;;6.30;3.13;;;20.90;1.00;22.00;94674.00;;;;7392054;19;20149;-78
2023/07/09 00:38:51;;;;;;;7.15;3.50;;;21.00;1.00;22.00;94668.00;;;;7399482;19;20121;-76
2023/07/09 00:41:22;;;;;;;6.13;3.45;;;21.00;1.00;21.90;94681.00;;;;7399877;19;20150;-76
2023/07/09 00:43:57;;;;;;;5.70;3.22;;;21.00;1.00;22.00;94684.00;;;;7398470;19;20125;-78
2023/07/09 00:46:26;;;;;;;5.65;3.58;;;21.10;99.90;22.00;94673.00;;;;7399230;19;20605;-76
2023/07/09 00:49:08;;;;;;;6.20;3.50;;;21.10;99.90;21.90;94678.00;;;;7401598;19;20214;-75
2023/07/09 00:51:43;;;;;;;5.38;3.40;;;21.20;99.90;21.80;94670.00;;;;7398315;19;20182;-76
2023/07/09 00:54:38;;;;;;;7.47;3.80;;;21.10;99.90;21.60;94675.00;;;;7397700;19;20136;-76
2023/07/09 00:57:17;;;;;;;7.38;3.22;;;21.00;1.00;21.50;94690.00;;;;7399431;19;20140;-76
2023/07/09 00:59:59;;;;;;;8.05;3.70;;;20.90;1.00;21.50;94670.00;;;;7398364;19;20136;-75
2023/07/09 01:02:45;;;;;;;5.20;3.20;;;20.80;1.00;21.30;94679.00;;;;7393319;19;20200;-81
2023/07/09 01:05:19;;;;;;;5.57;3.60;;;20.70;1.00;21.30;94670.00;;;;7398210;19;20580;-83
2023/07/09 01:07:53;;;;;;;6.90;3.53;;;20.60;1.00;21.20;94656.00;;;;7397532;19;20596;-84
2023/07/09 01:10:28;;;;;;;5.10;3.22;;;20.50;1.00;21.30;94665.00;;;;7398417;19;20149;-80
2023/07/09 01:12:57;;;;;;;5.75;3.60;;;20.50;1.00;21.20;94659.00;;;;7398954;19;20144;-80
2023/07/09 01:15:33;;;;;;;6.78;2.88;;;20.50;1.00;21.00;94685.00;;;;7391738;19;20152;-83
2023/07/09 01:18:01;;;;;;;5.35;3.35;;;20.40;1.00;20.90;94713.00;;;;7400760;19;20132;-80
2023/07/09 01:20:35;;;;;;;3.45;2.80;;;20.30;1.00;20.70;94699.00;;;;7400275;19;20149;-82
2023/07/09 01:23:03;;;;;;;5.63;3.47;;;20.20;1.00;20.50;94682.00;;;;7399178;19;20144;-81
2023/07/09 01:25:45;;;;;;;5.80;3.60;;;20.00;1.00;20.30;94685.00;;;;7400250;19;20145;-79
2023/07/09 01:28:13;;;;;;;5.35;3.10;;;19.80;1.00;20.30;94666.00;;;;7400575;19;20155;-80
2023/07/09 01:30:53;;;;;;;5.85;3.50;;;19.70;1.00;20.30;94673.00;;;;7399990;19;20156;-80
2023/07/09 01:33:22;;;;;;;7.50;3.90;;;19.60;1.00;20.20;94697.00;;;;7401543;19;20141;-79
2023/07/09 01:36:00;;;;;;;6.80;3.58;;;19.50;1.00;20.10;94691.00;;;;7402379;19;20458;-81
2023/07/09 01:38:30;;;;;;;8.00;3.92;;;19.40;1.00;20.10;94688.00;;;;7401939;19;20165;-81
2023/07/09 01:41:04;;;;;;;6.05;3.25;;;19.30;1.00;19.90;94680.00;;;;7402644;19;20140;-81
2023/07/09 01:43:39;;;;;;;7.13;3.65;;;19.20;1.00;19.90;94690.00;;;;7401587;19;20329;-81
2023/07/09 01:46:14;;;;;;;4.20;3.17;;;19.00;1.00;19.90;94690.00;;;;7399667;19;20604;-81
2023/07/09 01:48:41;;;;;;;5.10;3.20;;;19.00;1.00;19.90;94688.00;;;;7399736;19;20459;-81
2023/07/09 01:51:16;;;;;;;8.68;3.35;;;18.90;1.00;19.90;94683.00;;;;7401066;19;20128;-80
2023/07/09 01:53:45;;;;;;;6.68;3.90;;;18.90;1.00;19.90;94684.00;;;;7397082;19;20133;-82
2023/07/09 01:56:19;;;;;;;7.20;4.15;;;18.90;1.00;19.90;94679.00;;;;7398299;19;20152;-79
2023/07/09 01:58:52;;;;;;;6.22;3.17;;;18.90;1.00;19.90;94670.00;;;;7399874;19;20132;-81
2023/07/09 02:01:20;;;;;;;6.90;3.88;;;18.90;1.00;19.90;94656.00;;;;7398703;19;20184;-81
2023/07/09 02:04:02;;;;;;;5.25;2.92;;;18.90;1.00;19.80;94673.00;;;;7395405;19;20668;-80
2023/07/09 02:06:32;;;;;;;6.80;3.50;;;18.80;1.00;19.90;94676.00;;;;7395347;19;20132;-78
2023/07/09 02:09:06;;;;;;;7.22;3.72;;;18.80;1.00;20.00;94658.00;;;;7399670;19;20133;-81
2023/07/09 02:11:40;;;;;;;5.35;3.40;;;18.80;1.00;20.10;94665.00;;;;7394559;19;20133;-79
2023/07/09 02:14:08;;;;;;;5.18;2.97;;;18.90;1.00;20.20;94667.00;;;;7398747;19;20149;-80
2023/07/09 02:16:43;;;;;;;6.20;3.38;;;19.00;1.00;20.20;94667.00;;;;7397227;19;20151;-81
2023/07/09 02:19:18;;;;;;;4.93;3.10;;;19.10;1.00;20.20;94670.00;;;;7397725;19;20189;-80
2023/07/09 02:21:51;;;;;;;5.95;3.25;;;19.20;1.00;20.20;94655.00;;;;7398623;19;20152;-79
2023/07/09 02:24:19;;;;;;;6.85;3.42;;;19.20;1.00;20.30;94672.00;;;;7398414;19;20140;-81
2023/07/09 02:27:02;;;;;;;5.70;3.47;;;19.20;1.00;20.30;94685.00;;;;7398067;19;20144;-83
2023/07/09 02:29:36;;;;;;;5.57;3.22;;;19.30;1.00;20.30;94664.00;;;;7397693;19;20121;-81
2023/07/09 02:32:13;;;;;;;7.03;3.38;;;19.30;1.00;20.20;94681.00;;;;7397069;19;20555;-80
2023/07/09 02:34:40;;;;;;;5.43;3.70;;;19.40;1.00;20.30;94658.00;;;;7398146;19;20636;-82
2023/07/09 02:37:17;;;;;;;3.95;3.53;;;19.40;1.00;20.30;94655.00;;;;7400320;19;20485;-80
2023/07/09 02:39:52;;;;;;;8.52;3.40;;;19.40;1.00;20.30;94658.00;;;;7400228;19;20133;-79
2023/07/09 02:42:26;;;;;;;9.02;3.58;;;19.40;1.00;20.20;94653.00;;;;7398881;19;20175;-82
2023/07/09 02:45:02;;;;;;;4.93;3.28;;;19.30;1.00;20.10;94678.00;;;;7400157;19;20615;-79
2023/07/09 02:47:30;;;;;;;6.75;2.97;;;19.30;1.00;20.30;94657.00;;;;7401120;19;20157;-81
2023/07/09 02:50:05;;;;;;;6.93;3.42;;;19.30;1.00;20.30;94695.00;;;;7399567;19;20535;-81
2023/07/09 02:52:42;;;;;;;5.95;3.30;;;19.30;1.00;20.20;94670.00;;;;7399161;19;20159;-81
2023/07/09 02:55:15;;;;;;;5.75;3.28;;;19.20;1.00;19.90;94680.00;;;;7399807;19;20464;-80
2023/07/09 02:57:50;;;;;;;5.60;2.80;;;19.10;1.00;19.90;94673.00;;;;7398804;19;20152;-79
2023/07/09 03:00:18;;;;;;;4.00;2.88;;;19.10;1.00;20.00;94650.00;;;;7399007;19;20661;-81
2023/07/09 03:02:58;;;;;;;6.03;3.20;;;19.00;1.00;20.20;94684.00;;;;7403752;19;20213;-82
2023/07/09 03:05:34;;;;;;;6.32;3.00;;;19.00;1.00;20.20;94676.00;;;;7406485;19;20140;-82
2023/07/09 03:08:08;;;;;;;5.22;3.13;;;19.00;1.00;20.30;94692.00;;;;7404667;19;20184;-80
2023/07/09 03:10:42;;;;;;;6.90;3.20;;;19.10;1.00;20.30;94693.00;;;;7406584;19;20730;-81
2023/07/09 03:13:16;;;;;;;5.40;3.63;;;19.10;1.00;20.30;94689.00;;;;7401022;19;20128;-82
2023/07/09 03:15:55;;;;;;;4.93;2.95;;;19.10;1.00;20.20;94688.00;;;;7404612;19;20201;-81
2023/07/09 03:18:30;;;;;;;6.70;3.15;;;19.10;1.00;20.10;94682.00;;;;7404006;19;20935;-81
2023/07/09 03:21:04;;;;;;;4.18;3.20;;;19.10;1.00;20.10;94688.00;;;;7404934;19;20145;-80
2023/07/09 03:23:37;;;;;;;5.32;3.33;;;19.20;1.00;20.30;94700.00;;;;7403178;19;20143;-75
2023/07/09 03:26:04;;;;;;;7.13;3.72;;;19.20;1.00;20.40;94697.00;;;;7401871;19;20129;-75
2023/07/09 03:28:39;;;;;;;6.80;3.95;;;19.20;1.00;20.50;94690.00;;;;7401500;19;20726;-74
2023/07/09 03:31:06;;;;;;;9.82;3.08;;;19.30;1.00;20.50;94694.00;;;;7400152;19;20176;-75
2023/07/09 03:33:47;;;;;;;6.35;3.42;;;19.30;1.00;20.40;94680.00;;;;7401376;19;20144;-77
2023/07/09 03:36:16;;;;;;;5.65;3.45;;;19.30;1.00;20.50;94700.00;;;;7402409;19;20133;-74
2023/07/09 03:38:49;;;;;;;5.30;3.53;;;19.40;1.00;20.60;94679.00;;;;7399779;19;20177;-74
2023/07/09 03:41:17;;;;;;;6.43;3.60;;;19.50;1.00;20.70;94700.00;;;;7401769;19;20140;-76
2023/07/09 03:43:52;;;;;;;5.78;3.30;;;19.50;1.00;20.70;94684.00;;;;7400962;19;20166;-75
2023/07/09 03:46:20;;;;;;;7.72;3.17;;;19.60;1.00;20.50;94698.00;;;;7399494;19;20600;-74
2023/07/09 03:48:53;;;;;;;5.68;3.75;;;19.60;1.00;20.30;94711.00;;;;7401614;19;20568;-76
2023/07/09 03:51:28;;;;;;;7.60;3.65;;;19.50;1.00;20.30;94671.00;;;;7400342;19;20161;-72
2023/07/09 03:54:02;;;;;;;5.10;3.45;;;19.50;1.00;20.30;94683.00;;;;7400415;19;20140;-74
2023/07/09 03:56:37;;;;;;;4.88;3.42;;;19.50;1.00;20.30;94679.00;;;;7399004;19;20215;-76
2023/07/09 03:59:10;;;;;;;6.13;3.70;;;19.40;1.00;20.50;94681.00;;;;7401539;19;20125;-76
2023/07/09 04:01:46;;;;;;;4.65;3.70;;;19.40;1.00;20.50;94674.00;;;;7400306;19;20189;-75
2023/07/09 04:04:26;;;;;;;5.32;3.13;;;19.50;1.00;20.50;94683.00;;;;7400890;19;20132;-75
2023/07/09 04:06:53;;;;;;;3.90;3.10;;;19.50;1.00;20.40;94683.00;;;;7398661;19;20166;-76
2023/07/09 04:09:26;;;;;;;8.60;3.90;;;19.50;1.00;20.30;94700.00;;;;7389463;19;20635;-75
2023/07/09 04:12:03;;;;;;;4.90;3.20;;;19.50;1.00;20.50;94702.00;;;;7389432;19;20121;-73
2023/07/09 04:14:31;;;;;;;4.45;3.42;;;19.50;1.00;20.60;94699.00;;;;7394825;19;20208;-77
2023/07/09 04:17:05;;;;;;;5.70;3.30;;;19.60;1.00;20.80;94706.00;;;;7401036;19;20173;-79
2023/07/09 04:19:38;;;;;;;6.03;3.35;;;19.70;1.00;21.00;94707.00;;;;7399945;19;20141;-77
2023/07/09 04:22:13;;;;;;;6.00;3.17;;;19.90;1.00;20.90;94688.00;;;;7399966;19;20162;-74
2023/07/09 04:24:41;;;;;;;6.15;3.70;;;20.00;1.00;21.00;94691.00;;;;7398559;19;20137;-74
2023/07/09 04:27:16;;;;;;;6.88;3.83;;;19.90;1.00;21.00;94684.00;;;;7399323;19;20207;-74
2023/07/09 04:29:44;;;;;;;4.90;3.42;;;20.00;1.00;21.10;94710.00;;;;7397619;19;20137;-73
2023/07/09 04:32:18;;;;;;;5.32;3.65;;;20.00;1.00;21.20;94714.00;;;;7397466;19;20149;-75
2023/07/09 04:34:46;;;;;;;6.00;3.45;;;20.10;1.00;21.30;94709.00;;;;7399217;19;20162;-73
2023/07/09 04:37:17;;;;;;;6.18;3.75;;;20.20;1.00;21.30;94712.00;;;;7395586;19;20242;-73
2023/07/09 04:39:52;;;;;;;5.20;3.30;;;20.20;1.00;21.30;94713.00;;;;7399847;19;20129;-74
2023/07/09 04:42:19;;;;;;;7.75;3.70;;;20.30;1.00;21.30;94704.00;;;;7399337;19;20220;-74
2023/07/09 04:44:52;;;;;;;6.20;3.33;;;20.30;1.00;21.30;94704.00;;;;7399447;19;20143;-75
2023/07/09 04:47:20;;;;;;;5.90;3.70;;;20.40;1.00;21.40;94714.00;;;;7397503;19;20129;-75
2023/07/09 04:49:54;;;;;;;5.70;3.33;;;20.40;1.00;21.50;94695.00;;;;7398736;19;20599;-74
2023/07/09 04:52:22;;;;;;;4.35;3.60;;;20.50;1.00;21.70;94699.00;;;;7398352;19;20459;-74
2023/07/09 04:54:56;;;;;;;5.85;3.90;;;20.60;1.00;21.80;94719.00;;;;7398365;19;20148;-75
2023/07/09 04:57:31;;;;;;;6.25;3.60;;;20.70;1.00;22.00;94709.00;;;;7397219;19;20205;-75
2023/07/09 04:59:58;;;;;;;6.43;3.67;;;20.80;1.00;22.20;94725.00;;;;7393219;19;20152;-75
2023/07/09 05:02:40;;;;;;;8.20;3.75;;;21.00;1.00;22.30;94724.00;;;;7394381;19;20193;-74
2023/07/09 05:05:08;;;;;;;6.38;3.95;;;21.10;1.00;22.50;94725.00;;;;7398418;19;20515;-73
2023/07/09 05:07:42;;;;;;;7.22;3.47;;;21.20;1.00;22.70;94714.00;;;;7397793;19;20165;-74
2023/07/09 05:10:16;;;;;;;6.65;3.70;;;21.40;1.00;22.80;94720.00;;;;7396171;19;20145;-74
2023/07/09 05:12:55;;;;;;;5.35;3.95;;;21.50;1.00;23.00;94724.00;;;;7398588;19;20144;-76
2023/07/09 05:15:29;;;;;;;9.95;3.45;;;21.70;1.00;23.10;94726.00;;;;7397526;19;20137;-76
2023/07/09 05:18:03;;;;;;;5.00;3.17;;;21.80;1.00;23.30;94719.00;;;;7368311;19;20800;-75
2023/07/09 05:20:39;;;;;;;3.58;3.10;;;22.00;1.00;23.40;94734.00;;;;7383877;19;20603;-76
2023/07/09 05:23:13;;;;;;;10.23;3.53;;;22.10;1.00;23.50;94724.00;;;;7384839;19;20129;-74
2023/07/09 05:25:41;;;;;;;7.90;3.50;;;22.20;1.00;23.50;94730.00;;;;7385779;19;20592;-74
2023/07/09 05:28:32;;;;;;;6.95;3.42;;;22.30;99.90;23.70;94734.00;;;;7384495;19;20156;-73
2023/07/09 05:31:08;;;;;;;5.32;3.50;;;22.50;99.90;23.90;94734.00;;;;7388186;19;20133;-75
2023/07/09 05:33:42;;;;;;;6.32;3.53;;;22.60;99.90;24.00;94733.00;;;;7386855;19;20144;-75
2023/07/09 05:36:16;;;;;;;9.80;3.78;;;22.80;99.90;24.10;94727.00;;;;7386896;19;20197;-74
2023/07/09 05:38:50;;;;;;;5.68;3.40;;;22.90;99.90;24.30;94714.00;;;;7385666;19;20141;-73
2023/07/09 05:41:18;;;;;;;7.85;3.90;;;23.10;99.90;24.40;94707.00;;;;7386614;19;20136;-73
2023/07/09 05:43:53;;;;;;;8.98;3.38;;;23.20;99.90;24.50;94723.00;;;;7386928;19;20132;-77
2023/07/09 05:46:27;;;;;;;4.40;3.53;;;23.30;99.90;24.50;94694.00;;;;7384617;19;20159;-77
2023/07/09 05:49:02;;;;;;;8.07;3.47;;;23.40;99.90;24.80;94731.00;;;;7384014;19;20160;-80
2023/07/09 05:51:30;;;;;;;6.22;3.80;;;23.60;99.90;24.90;94726.00;;;;7384809;19;20185;-78
2023/07/09 05:54:04;;;;;;;5.38;3.70;;;23.80;99.90;25.20;94730.00;;;;7381967;19;20144;-80
2023/07/09 05:56:32;;;;;;;5.47;3.25;;;24.00;99.90;25.30;94713.00;;;;7382949;19;20152;-77
2023/07/09 05:59:05;;;;;;;8.48;3.70;;;24.10;99.90;25.50;94739.00;;;;7384161;19;20148;-80
2023/07/09 06:01:39;;;;;;;4.25;3.28;;;24.30;99.90;25.70;94681.00;;;;7382654;19;20193;-81
2023/07/09 06:04:36;;;;;;;4.50;3.30;;;24.40;99.90;25.80;94742.00;;;;7381410;19;20477;-77
2023/07/09 06:07:10;;;;;;;5.18;3.30;;;24.60;99.90;26.00;94719.00;;;;7382973;19;20196;-79
2023/07/09 06:09:38;;;;;;;3.83;3.20;;;24.80;99.90;26.10;94728.00;;;;7383863;19;20186;-81
2023/07/09 06:12:13;;;;;;;6.43;3.42;;;24.90;99.90;26.20;94714.00;;;;7379158;19;20168;-78
2023/07/09 06:14:46;;;;;;;5.50;3.30;;;25.00;99.90;26.50;94734.00;;;;7382212;19;20160;-80
2023/07/09 06:17:14;;;;;;;4.40;3.83;;;25.20;99.90;26.70;94735.00;;;;7382871;19;20137;-76
2023/07/09 06:19:48;;;;;;;6.22;3.65;;;25.30;99.90;26.90;94704.00;;;;7382487;19;20152;-81
2023/07/09 06:22:25;;;;;;;4.28;3.30;;;25.40;99.90;27.30;94723.00;;;;7382030;19;20128;-79
2023/07/09 06:25:00;;;;;;;4.28;3.30;;;25.60;99.90;27.60;94733.00;;;;7381113;19;20595;-79
2023/07/09 06:27:33;;;;;;;7.20;3.47;;;25.80;99.90;27.90;94746.00;;;;7381540;19;20153;-79
2023/07/09 06:30:00;;;;;;;5.57;3.20;;;25.90;99.90;27.90;94740.00;;;;7381048;19;20537;-80
2023/07/09 06:32:35;;;;;;;8.30;3.17;;;26.00;99.90;27.90;94724.00;;;;7381919;19;20628;-81
2023/07/09 06:35:05;;;;;;;4.90;3.70;;;26.10;99.90;28.10;94729.00;;;;7382321;19;22379;-79
2023/07/09 06:37:38;;;;;;;7.38;3.42;;;26.10;99.90;27.90;94733.00;;;;7381074;19;20195;-79
2023/07/09 06:40:08;;;;;;;4.90;3.17;;;26.20;99.90;28.30;94733.00;;;;7382498;19;20133;-79
2023/07/09 06:42:42;;;;;;;4.90;3.47;;;26.30;99.90;28.80;94723.00;;;;7382885;19;20203;-79
2023/07/09 06:45:17;;;;;;;6.18;3.47;;;26.40;99.90;28.70;94722.00;;;;7382029;19;20208;-79
2023/07/09 06:47:50;;;;;;;4.07;3.38;;;26.50;99.90;28.70;94742.00;;;;7381131;19;20556;-77
2023/07/09 06:50:18;;;;;;;6.88;3.42;;;26.50;99.90;28.60;94682.00;;;;7379198;19;20173;-80
2023/07/09 06:52:53;;;;;;;4.03;3.13;;;26.60;99.90;28.30;94750.00;;;;7383399;19;20596;-77
2023/07/09 06:55:26;;;;;;;7.90;3.45;;;26.60;99.90;28.30;94757.00;;;;7382639;19;20244;-74
2023/07/09 06:58:00;;;;;;;8.45;3.60;;;26.70;99.90;28.00;94752.00;;;;7379736;19;20651;-73
2023/07/09 07:00:37;;;;;;;5.68;3.35;;;26.70;99.90;27.80;94748.00;;;;7380574;19;20623;-74
2023/07/09 07:03:17;;;;;;;5.88;3.30;;;26.80;99.90;27.70;94740.00;;;;7381340;19;20187;-74
2023/07/09 07:05:53;;;;;;;6.00;3.33;;;26.90;99.90;27.90;94732.00;;;;7380131;19;20152;-75
2023/07/09 07:08:28;;;;;;;8.63;3.60;;;26.90;99.90;28.00;94756.00;;;;7381091;19;20464;-75
2023/07/09 07:11:05;;;;;;;11.30;3.00;;;27.00;99.90;28.20;94754.00;;;;7380494;19;20650;-75
2023/07/09 07:13:41;;;;;;;6.32;3.55;;;27.00;99.90;28.00;94760.00;;;;7377615;19;20182;-75
2023/07/09 07:16:14;;;;;;;7.22;4.10;;;27.20;99.90;28.00;94750.00;;;;7380251;19;20624;-76
2023/07/09 07:18:55;;;;;;;4.15;3.00;;;27.20;99.90;28.10;94742.00;;;;7379645;19;20196;-76
2023/07/09 07:21:28;;;;;;;3.80;3.30;;;27.30;99.90;28.20;94749.00;;;;7382125;19;20600;-74
2023/07/09 07:24:04;;;;;;;4.60;3.15;;;27.40;99.90;28.20;94709.00;;;;7381611;19;20125;-76
2023/07/09 07:26:38;;;;;;;6.63;3.40;;;27.40;99.90;28.20;94735.00;;;;7381225;19;20140;-74
2023/07/09 07:29:06;;;;;;;7.60;3.50;;;27.50;99.90;28.20;94705.00;;;;7379639;19;20193;-76
2023/07/09 07:31:39;;;;;;;4.07;3.13;;;27.50;99.90;28.40;94750.00;;;;7380632;19;20157;-75
2023/07/09 07:34:13;;;;;;;6.78;3.33;;;27.70;99.90;28.30;94731.00;;;;7380852;19;20437;-75
2023/07/09 07:36:41;;;;;;;5.82;3.38;;;27.70;99.90;28.40;94725.00;;;;7379599;19;20778;-76
2023/07/09 07:39:15;;;;;;;9.57;3.63;;;27.80;99.90;28.60;94731.00;;;;7382068;19;20148;-76
2023/07/09 07:41:42;;;;;;;9.55;3.30;;;27.90;99.90;28.60;94755.00;;;;7378680;19;20592;-75
2023/07/09 07:44:17;;;;;;;3.85;3.17;;;28.00;99.90;28.70;94727.00;;;;7378962;19;20182;-75
2023/07/09 07:46:53;;;;;;;7.03;3.58;;;28.00;99.90;28.90;94731.00;;;;7381308;19;20142;-76
2023/07/09 07:49:27;;;;;;;7.32;3.63;;;28.00;99.90;28.90;94734.00;;;;7387344;19;20156;-75
2023/07/09 07:52:03;;;;;;;5.68;3.25;;;28.10;99.90;28.60;94734.00;;;;7386157;19;20156;-76
2023/07/09 07:54:37;;;;;;;5.43;3.67;;;28.20;99.90;28.90;94731.00;;;;7389610;19;20136;-76
2023/07/09 07:57:04;;;;;;;5.78;3.45;;;28.30;99.90;29.20;94722.00;;;;7387478;19;20149;-74
2023/07/09 07:59:39;;;;;;;4.15;3.47;;;28.30;99.90;29.10;94733.00;;;;7389924;19;20147;-74
2023/07/09 08:02:11;;;;;;;6.70;3.53;;;28.50;99.90;29.50;94731.00;;;;7386201;19;20184;-76
2023/07/09 08:04:52;;;;;;;9.65;4.03;;;28.50;99.90;29.60;94744.00;;;;7387436;19;20155;-76
2023/07/09 08:07:26;;;;;;;4.82;3.88;;;28.60;99.90;29.80;94736.00;;;;7387262;19;20169;-77
2023/07/09 08:10:00;;;;;;;6.53;3.45;;;28.70;99.90;29.40;94722.00;;;;7384330;19;20473;-76
2023/07/09 08:12:29;;;;;;;5.15;3.25;;;28.70;99.90;29.60;94742.00;;;;7388510;19;20624;-77
2023/07/09 08:14:57;;;;;;;5.28;3.55;;;28.90;99.90;29.70;94720.00;;;;7389781;19;20137;-75
2023/07/09 08:17:30;;;;;;;5.00;3.45;;;29.00;99.90;29.90;94729.00;;;;7387429;19;20715;-77
2023/07/09 08:20:05;;;;;;;6.60;4.30;;;29.00;99.90;30.10;94733.00;;;;7388687;19;20183;-75
2023/07/09 08:22:39;;;;;;;7.75;3.97;;;29.10;99.90;30.30;94738.00;;;;7388828;19;20149;-77
2023/07/09 08:25:13;;;;;;;6.22;3.97;;;29.10;99.90;30.50;94728.00;;;;7387784;19;20612;-78
2023/07/09 08:27:48;;;;;;;5.80;4.03;;;29.40;99.90;30.80;94716.00;;;;7386387;19;20251;-75
2023/07/09 08:30:15;;;;;;;4.10;3.65;;;29.50;99.90;30.80;94728.00;;;;7384084;19;20156;-75
2023/07/09 08:32:49;;;;;;;9.55;3.95;;;29.50;99.90;30.40;94744.00;;;;7387476;19;20543;-75
2023/07/09 08:35:24;;;;;;;8.30;4.28;;;29.60;99.90;30.40;94757.00;;;;7387746;19;20602;-76
2023/07/09 08:38:03;;;;;;;5.28;3.45;;;29.80;99.90;30.90;94738.00;;;;7388018;19;20473;-75
2023/07/09 08:40:31;;;;;;;5.88;3.90;;;29.90;99.90;30.80;94742.00;;;;7399631;19;20383;-75
2023/07/09 08:43:35;;;;;;;6.35;3.47;;;30.00;99.90;30.60;94715.00;;;;7401850;19;20203;-76
2023/07/09 08:46:28;;;;;;;6.05;3.45;;;30.00;99.90;30.60;94735.00;;;;7397510;19;20173;-76
2023/07/09 08:49:17;;;;;;;5.35;3.25;;;30.00;99.90;30.70;94731.00;;;;7401241;19;20125;-76
2023/07/09 08:51:49;;;;;;;4.50;3.28;;;29.80;99.90;31.00;94739.00;;;;7395142;19;20974;-75
2023/07/09 08:54:36;;;;;;;7.20;3.30;;;29.80;99.90;30.90;94744.00;;;;7396106;19;21131;-75
2023/07/09 08:57:31;;;;;;;9.02;3.13;;;30.00;99.90;31.50;94735.00;;;;7399814;19;20133;-75
2023/07/09 09:00:20;;;;;;;6.43;3.40;;;30.10;99.90;31.40;94730.00;;;;7396947;19;20136;-77
2023/07/09 09:03:27;;;;;;;4.97;3.70;;;30.20;99.90;31.10;94745.00;;;;7395280;19;20600;-74
2023/07/09 09:05:55;;;;;;;4.55;3.83;;;30.30;99.90;31.70;94744.00;;;;7398151;19;20141;-76
2023/07/09 09:09:02;;;;;;;5.25;3.60;;;30.40;99.90;31.80;94730.00;;;;7398272;19;20617;-77
2023/07/09 09:11:48;;;;;;;5.78;3.83;;;30.50;99.90;32.00;94751.00;;;;7394712;19;20624;-81
2023/07/09 09:14:35;;;;;;;5.68;3.22;;;30.50;99.90;31.50;94747.00;;;;7396849;19;20154;-77
2023/07/09 09:17:16;;;;;;;7.05;3.65;;;30.70;99.90;32.00;94734.00;;;;7397680;19;20140;-76
2023/07/09 09:20:03;;;;;;;4.13;3.50;;;31.00;99.90;32.00;94740.00;;;;7398325;19;20207;-79
2023/07/09 09:22:56;;;;;;;4.82;3.55;;;31.40;99.90;31.90;94755.00;;;;7396808;19;20148;-77
2023/07/09 09:25:33;;;;;;;5.40;3.75;;;31.70;99.90;32.00;94740.00;;;;7398345;19;20517;-80
2023/07/09 09:28:08;;;;;;;8.05;3.58;;;31.90;99.90;32.50;94745.00;;;;7397762;19;20136;-79
2023/07/09 09:30:35;;;;;;;8.77;3.65;;;31.70;99.90;32.00;94743.00;;;;7398091;19;20675;-79
2023/07/09 09:33:14;;;;;;;5.85;3.47;;;31.90;99.90;32.50;94738.00;;;;7396605;19;20138;-78
2023/07/09 09:35:50;;;;;;;6.88;4.35;;;32.00;99.90;32.90;94742.00;;;;7396337;19;20136;-79
2023/07/09 09:38:25;;;;;;;6.78;4.28;;;32.00;99.90;32.50;94737.00;;;;7397807;19;20151;-76
2023/07/09 09:41:00;;;;;;;4.97;4.25;;;32.10;99.90;32.70;94734.00;;;;7397067;19;20144;-79
2023/07/09 09:43:37;;;;;;;6.70;3.70;;;32.20;99.90;32.70;94733.00;;;;7396496;19;20136;-77
2023/07/09 09:46:26;;;;;;;4.78;3.53;;;32.40;99.90;32.30;94733.00;;;;7397348;19;20164;-78
2023/07/09 09:49:00;;;;;;;6.03;3.50;;;32.50;99.90;32.80;94709.00;;;;7397752;19;20148;-80
2023/07/09 09:51:34;;;;;;;4.97;3.45;;;32.30;99.90;33.00;94720.00;;;;7397524;19;20124;-78
2023/07/09 09:54:21;;;;;;;4.95;3.63;;;32.60;99.90;33.00;94712.00;;;;7395583;19;20132;-78
2023/07/09 09:56:50;;;;;;;6.68;3.78;;;32.60;99.90;33.70;94715.00;;;;7397259;19;20168;-78
2023/07/09 09:59:36;;;;;;;8.38;3.92;;;32.80;99.90;33.60;94718.00;;;;7397561;19;20251;-79
2023/07/09 10:02:21;;;;;;;6.90;3.70;;;33.20;99.90;33.20;94707.00;;;;7393740;19;21043;-80
2023/07/09 10:05:03;;;;;;;9.88;3.70;;;32.70;99.90;33.60;94699.00;;;;7395979;19;20555;-79
2023/07/09 10:07:45;;;;;;;9.27;3.38;;;32.60;99.90;34.30;94711.00;;;;7397142;19;20147;-79
2023/07/09 10:10:24;;;;;;;6.05;3.70;;;32.80;99.90;34.80;94721.00;;;;7396652;19;20148;-80
2023/07/09 10:13:22;;;;;;;4.20;3.15;;;;;34.20;94710.00;;;;7395629;19;20224;-80
2023/07/09 10:16:07;;;;;;;5.82;3.40;;;;;34.60;94711.00;;;;7395206;19;20148;-79
2023/07/09 10:18:42;;;;;;;4.47;3.15;;;;;34.50;94710.00;;;;7397531;19;20491;-79
2023/07/09 10:21:57;;;;;;;6.38;3.63;;;;;33.90;94703.00;;;;7393096;19;20631;-80
2023/07/09 10:24:37;;;;;;;4.45;3.63;;;;;33.70;94706.00;;;;7398332;19;20204;-75
2023/07/09 10:27:34;;;;;;;4.75;3.58;;;;;34.70;94712.00;;;;7397104;19;20513;-76
2023/07/09 10:30:18;;;;;;;4.13;3.28;;;;;34.70;94704.00;;;;7396795;19;20132;-75
2023/07/09 10:33:08;;;;;;;4.03;3.40;;;;;34.90;94698.00;;;;7394997;19;20152;-76
2023/07/09 10:36:01;;;;;;;5.22;3.53;;;;;34.50;94701.00;;;;7393771;19;20580;-76
2023/07/09 10:38:54;;;;;;;6.85;3.63;;;;;34.60;94693.00;;;;7397633;19;20503;-77
2023/07/09 10:41:31;;;;;;;5.90;3.17;;;;;35.50;94689.00;;;;7396363;19;20619;-75
2023/07/09 10:44:21;;;;;;;8.68;3.33;;;;;35.00;94699.00;;;;7395588;19;20141;-74
2023/07/09 10:46:54;;;;;;;4.82;3.50;;;;;34.40;94696.00;;;;7395513;19;20173;-75
2023/07/09 10:49:36;;;;;;;4.97;3.40;;;;;34.80;94685.00;;;;7396326;19;20136;-76
2023/07/09 10:52:31;;;;;;;4.53;3.33;;;;;35.50;94692.00;;;;7394417;19;20483;-75
2023/07/09 10:55:27;;;;;;;5.68;3.80;;;;;34.60;94697.00;;;;7392690;19;20603;-75
2023/07/09 10:58:30;;;;;;;5.57;3.50;;;;;34.80;94691.00;;;;7394055;19;20504;-77
2023/07/09 11:01:05;;;;;;;5.57;3.35;;;;;35.10;94685.00;;;;7392879;19;20258;-76
2023/07/09 11:03:58;;;;;;;5.13;3.50;;;;;35.30;94690.00;;;;7392097;19;20136;-76
2023/07/09 11:06:41;;;;;;;7.88;3.85;;;;;35.50;94682.00;;;;7394563;19;20140;-75
2023/07/09 11:09:38;;;;;;;5.35;3.70;;;;;35.40;94681.00;;;;7393883;19;20124;-74
2023/07/09 11:12:36;;;;;;;6.65;3.67;;;;;35.20;94690.00;;;;7394155;19;20133;-74
2023/07/09 11:15:20;;;;;;;5.43;3.58;;;;;35.70;94693.00;;;;7392535;19;20620;-74
2023/07/09 11:17:58;;;;;;;6.07;3.90;;;;;35.60;94690.00;;;;7393470;19;20132;-79
2023/07/09 11:20:41;;;;;;;6.90;3.58;;;;;35.80;94690.00;;;;7390099;19;20120;-77
2023/07/09 11:23:22;;;;;;;5.18;3.72;;;;;35.60;94676.00;;;;7400704;19;20212;-76
2023/07/09 11:26:09;;;;;;;4.65;3.50;;;;;36.10;94685.00;;;;7398399;19;20616;-76
2023/07/09 11:28:51;;;;;;;5.90;3.47;;;;;36.50;94682.00;;;;7401727;19;20140;-77
2023/07/09 11:31:35;;;;;;;5.30;4.18;;;;;36.60;94692.00;;;;7402054;19;20145;-76
2023/07/09 11:34:13;;;;;;;4.30;3.28;;;;;36.00;94682.00;;;;7402308;19;20139;-77
2023/07/09 11:36:54;;;;;;;6.40;3.78;;;;;36.10;94685.00;;;;7400433;19;20251;-76
2023/07/09 11:39:42;;;;;;;8.77;3.72;;;;;36.00;94689.00;;;;7400673;19;20135;-77
2023/07/09 11:42:34;;;;;;;8.57;3.60;;;;;36.10;94675.00;;;;7401656;19;20128;-76
2023/07/09 11:45:14;;;;;;;4.45;3.72;;;;;35.90;94680.00;;;;7400025;19;20611;-76
2023/07/09 11:47:55;;;;;;;8.80;4.25;;;;;36.10;94671.00;;;;7402625;19;20137;-74